Terminal Aerodrome Forecast
Issued by NWS

Home | Current Version | Previous Version | Text Only | Print | Product List | Glossary On
Versions: 1 2 3 4 5 6 7 8 9 10 11 12 13 14 15 16 17 18 19 20 21
000
FTUS44 KMAF 070228 CCA
TAFFST
TAF COR
KFST 070228Z 0702/0724 17015KT P6SM SCT040 OVC200
      TEMPO 0702/0706 VRB20G30KT 6SM TSRA BKN035CB
     FM071200 24009KT P6SM FEW035 OVC250
     FM071600 03008G18KT P6SM SCT035 OVC250=

USA.gov is the U.S. government's official web portal to all federal, state and local government web resources and services.